Time;durP1;ratioP1;P1;durP2;ratioP2;P2;SDS_P1;SDS_P2;PMS_P1;PMS_P2;Temp;Humidity;BMP_temperature;BMP_pressure;BME280_temperature;BME280_humidity;BME280_pressure;Samples;Min_cycle;Max_cycle;Signal;HPM_P1;HPM_P2
2023/09/17 00:01:02;;;;;;;26.80;17.67;;;;;;;;;;6246122;28;20087;-57
2023/09/17 00:04:23;;;;;;;24.73;15.20;;;;;;;;;;6256677;28;20115;-59
2023/09/17 00:07:24;;;;;;;27.83;17.00;;;;;;;;;;6251124;28;20100;-58
2023/09/17 00:10:24;;;;;;;22.90;15.07;;;;;;;;;;6253604;28;20052;-59
2023/09/17 00:13:25;;;;;;;23.40;15.63;;;;;;;;;;6249750;28;20037;-56
2023/09/17 00:16:31;;;;;;;28.90;18.15;;;;;;;;;;6260055;28;20037;-57
2023/09/17 00:19:32;;;;;;;25.25;16.98;;;;;;;;;;6245864;28;20172;-58
2023/09/17 00:22:33;;;;;;;28.85;18.60;;;;;;;;;;6247575;28;20046;-58
2023/09/17 00:25:35;;;;;;;24.33;16.90;;;;;;;;;;6256698;28;20041;-58
2023/09/17 00:28:35;;;;;;;;;;;;;;;;;;6244157;28;20382;-58
2023/09/17 00:31:37;;;;;;;25.52;15.82;;;;;;;;;;6250117;28;19921;-59
2023/09/17 00:34:38;;;;;;;26.08;16.73;;;;;;;;;;6253049;28;20045;-57
2023/09/17 00:37:40;;;;;;;25.53;16.17;;;;;;;;;;6244212;28;20055;-59
2023/09/17 00:40:41;;;;;;;25.02;16.65;;;;;;;;;;6249961;28;20111;-60
2023/09/17 00:43:42;;;;;;;24.83;16.07;;;;;;;;;;6256835;28;20029;-58
2023/09/17 00:46:43;;;;;;;29.20;17.17;;;;;;;;;;6240855;28;20060;-59
2023/09/17 00:49:43;;;;;;;25.80;17.05;;;;;;;;;;6256042;28;20200;-59
2023/09/17 00:52:44;;;;;;;25.35;16.52;;;;;;;;;;6249652;28;20524;-57
2023/09/17 00:55:45;;;;;;;28.33;19.45;;;;;;;;;;6255583;28;20115;-59
2023/09/17 00:58:45;;;;;;;31.30;18.10;;;;;;;;;;6244265;28;20076;-59
2023/09/17 01:01:46;;;;;;;26.88;17.13;;;;;;;;;;6248239;28;20040;-59
2023/09/17 01:04:49;;;;;;;27.70;16.52;;;;;;;;;;6256369;28;20053;-60
2023/09/17 01:07:50;;;;;;;24.02;15.82;;;;;;;;;;6242880;28;20045;-58
2023/09/17 01:10:54;;;;;;;26.48;16.45;;;;;;;;;;6250066;28;20367;-58
2023/09/17 01:14:08;;;;;;;26.33;17.20;;;;;;;;;;6253215;28;20072;-59
2023/09/17 01:17:09;;;;;;;27.13;18.23;;;;;;;;;;6245346;28;20396;-59
2023/09/17 01:20:24;;;;;;;26.25;16.52;;;;;;;;;;6252142;28;20423;-60
2023/09/17 01:23:47;;;;;;;31.50;19.60;;;;;;;;;;6246514;28;20041;-60
2023/09/17 01:27:03;;;;;;;28.75;17.58;;;;;;;;;;6248719;28;20041;-57
2023/09/17 01:30:05;;;;;;;31.45;21.48;;;;;;;;;;6241237;28;20080;-60
2023/09/17 01:33:09;;;;;;;;;;;;;;;;;;6232614;28;20415;-59
2023/09/17 01:36:25;;;;;;;28.23;19.65;;;;;;;;;;6245202;28;20047;-59
2023/09/17 01:39:30;;;;;;;29.80;18.52;;;;;;;;;;6242464;28;20095;-58
2023/09/17 01:42:32;;;;;;;26.60;18.08;;;;;;;;;;6241326;28;20132;-59
2023/09/17 01:45:34;;;;;;;;;;;;;;;;;;6249134;28;20048;-59
2023/09/17 01:48:37;;;;;;;28.08;19.70;;;;;;;;;;6248181;28;19921;-58
2023/09/17 01:51:38;;;;;;;32.35;22.50;;;;;;;;;;6241659;28;20051;-59
2023/09/17 01:54:39;;;;;;;24.40;16.63;;;;;;;;;;6257248;28;20042;-60
2023/09/17 01:57:41;;;;;;;27.40;15.95;;;;;;;;;;6247107;28;20523;-59
2023/09/17 02:00:41;;;;;;;25.50;15.25;;;;;;;;;;6243957;28;20515;-57
2023/09/17 02:03:42;;;;;;;27.08;16.55;;;;;;;;;;6223113;28;20057;-60
2023/09/17 02:06:42;;;;;;;29.00;15.30;;;;;;;;;;6241117;28;20057;-59
2023/09/17 02:09:43;;;;;;;24.58;15.63;;;;;;;;;;6241267;28;20562;-58
2023/09/17 02:12:44;;;;;;;24.58;16.25;;;;;;;;;;6241362;28;20503;-59
2023/09/17 02:15:45;;;;;;;29.97;18.13;;;;;;;;;;6240840;28;20136;-58
2023/09/17 02:18:45;;;;;;;36.75;23.88;;;;;;;;;;6240744;28;20069;-59
2023/09/17 02:21:46;;;;;;;37.40;24.08;;;;;;;;;;6241621;28;20041;-58
2023/09/17 02:24:46;;;;;;;35.25;23.20;;;;;;;;;;6240212;28;20482;-59
2023/09/17 02:27:47;;;;;;;31.88;21.95;;;;;;;;;;6242665;28;20067;-58
2023/09/17 02:30:47;;;;;;;32.83;19.63;;;;;;;;;;6240641;28;20065;-59
2023/09/17 02:33:48;;;;;;;29.27;18.70;;;;;;;;;;6240589;28;20053;-58
2023/09/17 02:36:49;;;;;;;29.65;17.02;;;;;;;;;;6240245;28;20497;-60
2023/09/17 02:39:49;;;;;;;25.85;17.02;;;;;;;;;;6240253;28;20077;-59
2023/09/17 02:42:50;;;;;;;29.45;17.77;;;;;;;;;;6240890;28;20045;-59
2023/09/17 02:45:53;;;;;;;29.63;17.08;;;;;;;;;;6239678;28;20048;-59
2023/09/17 02:48:54;;;;;;;26.25;16.15;;;;;;;;;;6239078;28;20042;-59
2023/09/17 02:51:55;;;;;;;25.77;16.13;;;;;;;;;;6240214;28;20042;-59
2023/09/17 02:54:55;;;;;;;30.00;16.90;;;;;;;;;;6248617;28;20465;-59
2023/09/17 02:57:56;;;;;;;27.08;15.82;;;;;;;;;;6243992;28;20084;-60
2023/09/17 03:00:56;;;;;;;25.63;15.45;;;;;;;;;;6239800;28;20048;-57
2023/09/17 03:03:57;;;;;;;30.85;16.90;;;;;;;;;;6240375;28;20069;-59
2023/09/17 03:06:58;;;;;;;26.00;15.50;;;;;;;;;;6240170;28;20489;-59
2023/09/17 03:09:59;;;;;;;27.33;17.35;;;;;;;;;;6239600;28;20116;-58
2023/09/17 03:13:00;;;;;;;29.00;17.25;;;;;;;;;;6241275;28;20112;-59
2023/09/17 03:16:00;;;;;;;26.75;16.13;;;;;;;;;;6244092;28;20069;-59
2023/09/17 03:19:01;;;;;;;29.10;17.48;;;;;;;;;;6244441;28;20140;-58
2023/09/17 03:22:02;;;;;;;26.52;16.05;;;;;;;;;;6244981;28;20046;-59
2023/09/17 03:25:04;;;;;;;27.65;17.10;;;;;;;;;;6242656;28;20045;-58
2023/09/17 03:28:05;;;;;;;;;;;;;;;;;;6246017;28;20068;-59
2023/09/17 03:31:05;;;;;;;25.00;15.73;;;;;;;;;;6244230;28;19921;-58
2023/09/17 03:34:06;;;;;;;28.13;16.95;;;;;;;;;;6243558;28;20049;-59
2023/09/17 03:37:07;;;;;;;29.17;16.90;;;;;;;;;;6243309;28;20050;-60
2023/09/17 03:40:10;;;;;;;34.75;21.30;;;;;;;;;;6244958;28;20073;-59
2023/09/17 03:43:11;;;;;;;39.45;25.90;;;;;;;;;;6244594;28;20056;-59
2023/09/17 03:46:12;;;;;;;36.53;25.35;;;;;;;;;;6243695;28;20073;-59
2023/09/17 03:49:13;;;;;;;35.83;23.67;;;;;;;;;;6244124;28;20057;-60
2023/09/17 03:52:13;;;;;;;34.00;23.75;;;;;;;;;;6242598;28;20520;-58
2023/09/17 03:55:14;;;;;;;33.28;20.83;;;;;;;;;;6251961;28;20045;-59
2023/09/17 03:58:15;;;;;;;35.50;21.37;;;;;;;;;;6247687;28;20049;-59
2023/09/17 04:01:16;;;;;;;33.35;19.90;;;;;;;;;;6245096;28;20546;-58
2023/09/17 04:04:16;;;;;;;30.30;17.92;;;;;;;;;;6243258;28;20077;-59
2023/09/17 04:07:17;;;;;;;28.17;16.88;;;;;;;;;;6244598;28;20497;-59
2023/09/17 04:10:18;;;;;;;31.15;18.30;;;;;;;;;;6243221;28;20144;-60
2023/09/17 04:13:19;;;;;;;30.02;17.95;;;;;;;;;;6243375;28;20046;-60
2023/09/17 04:16:23;;;;;;;32.22;17.40;;;;;;;;;;6242999;28;20056;-59
2023/09/17 04:19:23;;;;;;;28.38;16.35;;;;;;;;;;6244808;28;20045;-58
2023/09/17 04:22:24;;;;;;;26.42;16.15;;;;;;;;;;6243263;28;20228;-59
2023/09/17 04:25:25;;;;;;;30.20;17.00;;;;;;;;;;6242120;28;20048;-57
2023/09/17 04:28:26;;;;;;;29.35;16.55;;;;;;;;;;6241393;28;20046;-59
2023/09/17 04:31:27;;;;;;;31.08;17.27;;;;;;;;;;6242706;28;20602;-59
2023/09/17 04:34:28;;;;;;;26.10;16.25;;;;;;;;;;6242050;28;20045;-58
2023/09/17 04:37:28;;;;;;;30.53;17.67;;;;;;;;;;6243260;28;20416;-59
2023/09/17 04:40:29;;;;;;;29.45;17.73;;;;;;;;;;6239822;28;20037;-60
2023/09/17 04:43:30;;;;;;;32.92;18.35;;;;;;;;;;6244762;28;20044;-59
2023/09/17 04:46:30;;;;;;;30.95;18.20;;;;;;;;;;6245621;28;20052;-60
2023/09/17 04:49:31;;;;;;;29.00;16.42;;;;;;;;;;6246408;28;20056;-59
2023/09/17 04:52:32;;;;;;;27.17;16.63;;;;;;;;;;6240334;28;20120;-60
2023/09/17 04:55:33;;;;;;;32.53;17.50;;;;;;;;;;6252862;28;20057;-59
2023/09/17 04:58:34;;;;;;;28.88;16.73;;;;;;;;;;6245746;28;20147;-59
2023/09/17 05:01:34;;;;;;;27.50;15.97;;;;;;;;;;6253949;28;20052;-60
2023/09/17 05:04:35;;;;;;;28.15;15.82;;;;;;;;;;6228720;28;20041;-60
2023/09/17 05:07:38;;;;;;;26.42;16.50;;;;;;;;;;6241198;28;20041;-60
2023/09/17 05:10:39;;;;;;;28.48;16.58;;;;;;;;;;6241804;28;20053;-59
2023/09/17 05:13:39;;;;;;;27.92;16.17;;;;;;;;;;6246104;28;20184;-60
2023/09/17 05:16:40;;;;;;;29.85;17.02;;;;;;;;;;6241945;28;20053;-59
2023/09/17 05:19:41;;;;;;;26.70;16.23;;;;;;;;;;6239405;28;20072;-61
2023/09/17 05:22:41;;;;;;;28.55;16.83;;;;;;;;;;6241307;28;20850;-60
2023/09/17 05:25:42;;;;;;;28.38;16.13;;;;;;;;;;6240888;28;20041;-59
2023/09/17 05:28:44;;;;;;;31.30;16.73;;;;;;;;;;6249455;28;20507;-58
2023/09/17 05:31:44;;;;;;;;;;;;;;;;;;6245014;28;20048;-59
2023/09/17 05:34:45;;;;;;;26.73;15.73;;;;;;;;;;6241716;28;19925;-59
2023/09/17 05:37:45;;;;;;;30.63;17.42;;;;;;;;;;6240939;28;20045;-60
2023/09/17 05:40:46;;;;;;;27.40;16.17;;;;;;;;;;6241894;28;20041;-58
2023/09/17 05:43:47;;;;;;;31.15;16.35;;;;;;;;;;6240057;28;20057;-60
2023/09/17 05:46:47;;;;;;;26.80;16.42;;;;;;;;;;6251967;28;20041;-59
2023/09/17 05:49:48;;;;;;;30.23;16.40;;;;;;;;;;6239653;28;20056;-59
2023/09/17 05:52:49;;;;;;;29.80;17.10;;;;;;;;;;6242024;28;20037;-60
2023/09/17 05:55:49;;;;;;;28.47;16.80;;;;;;;;;;6245253;28;20053;-60
2023/09/17 05:58:50;;;;;;;25.40;15.53;;;;;;;;;;6241310;28;20037;-59
2023/09/17 06:01:50;;;;;;;27.67;16.52;;;;;;;;;;6241570;28;20052;-60
2023/09/17 06:04:53;;;;;;;26.37;15.43;;;;;;;;;;6241363;28;20049;-59
2023/09/17 06:07:54;;;;;;;27.52;15.57;;;;;;;;;;6241244;28;21645;-58
2023/09/17 06:10:55;;;;;;;30.08;15.55;;;;;;;;;;6241769;28;20045;-60
2023/09/17 06:13:55;;;;;;;25.80;14.87;;;;;;;;;;6252390;28;20037;-61
2023/09/17 06:16:56;;;;;;;25.37;15.03;;;;;;;;;;6245023;28;20081;-59
2023/09/17 06:19:57;;;;;;;25.37;15.10;;;;;;;;;;6239460;28;20057;-60
2023/09/17 06:22:58;;;;;;;23.90;15.03;;;;;;;;;;6240770;28;20057;-60
2023/09/17 06:25:59;;;;;;;23.63;14.93;;;;;;;;;;6254254;28;20123;-60
2023/09/17 06:29:00;;;;;;;24.27;14.93;;;;;;;;;;6249486;28;20055;-60
2023/09/17 06:32:01;;;;;;;25.80;15.20;;;;;;;;;;6263250;28;20382;-62
2023/09/17 06:35:02;;;;;;;26.10;15.93;;;;;;;;;;6249652;28;20042;-62
2023/09/17 06:38:03;;;;;;;31.30;16.17;;;;;;;;;;6237736;28;20504;-62
2023/09/17 06:41:03;;;;;;;26.30;16.30;;;;;;;;;;6239580;28;20046;-63
2023/09/17 06:44:04;;;;;;;28.40;15.90;;;;;;;;;;6238828;28;20049;-62
2023/09/17 06:47:05;;;;;;;21.97;13.87;;;;;;;;;;6221438;28;20136;-62
2023/09/17 06:50:07;;;;;;;26.23;14.57;;;;;;;;;;6242046;28;20056;-62
2023/09/17 06:53:08;;;;;;;26.70;14.68;;;;;;;;;;6243762;28;20530;-62
2023/09/17 06:56:09;;;;;;;23.07;14.27;;;;;;;;;;6244942;28;20041;-62
2023/09/17 06:59:10;;;;;;;24.77;14.57;;;;;;;;;;6245158;28;20060;-61
2023/09/17 07:02:11;;;;;;;27.40;14.90;;;;;;;;;;6244853;28;20045;-63
2023/09/17 07:05:11;;;;;;;24.07;15.53;;;;;;;;;;6244721;28;20064;-62
2023/09/17 07:08:12;;;;;;;22.60;13.87;;;;;;;;;;6242450;28;20037;-63
2023/09/17 07:11:13;;;;;;;24.90;14.73;;;;;;;;;;6242955;28;20053;-62
2023/09/17 07:14:13;;;;;;;24.73;13.80;;;;;;;;;;6245814;28;20110;-62
2023/09/17 07:17:14;;;;;;;25.80;13.73;;;;;;;;;;6245699;28;20029;-62
2023/09/17 07:20:14;;;;;;;23.47;14.50;;;;;;;;;;6244833;28;20037;-62
2023/09/17 07:23:16;;;;;;;23.93;15.23;;;;;;;;;;6244674;28;20049;-62
2023/09/17 07:26:16;;;;;;;22.03;14.37;;;;;;;;;;6244244;28;20091;-62
2023/09/17 07:29:17;;;;;;;22.27;13.20;;;;;;;;;;6244187;28;20045;-62
2023/09/17 07:32:18;;;;;;;22.83;14.03;;;;;;;;;;6242171;28;20049;-63
2023/09/17 07:35:18;;;;;;;21.70;13.60;;;;;;;;;;6244420;28;20172;-63
2023/09/17 07:38:19;;;;;;;20.37;13.37;;;;;;;;;;6243894;28;20054;-64
2023/09/17 07:41:20;;;;;;;21.00;12.20;;;;;;;;;;6245052;28;20096;-64
2023/09/17 07:44:20;;;;;;;21.67;13.07;;;;;;;;;;6244008;28;20102;-63
2023/09/17 07:47:21;;;;;;;21.23;12.70;;;;;;;;;;6243705;28;20053;-63
2023/09/17 07:50:22;;;;;;;20.97;12.03;;;;;;;;;;6242501;28;20071;-62
2023/09/17 07:53:23;;;;;;;24.80;12.77;;;;;;;;;;6243621;28;20065;-63
2023/09/17 07:56:24;;;;;;;21.05;12.55;;;;;;;;;;6242929;28;20144;-63
2023/09/17 07:59:24;;;;;;;17.17;10.87;;;;;;;;;;6243557;28;20053;-62
2023/09/17 08:02:25;;;;;;;21.60;11.60;;;;;;;;;;6243255;28;20523;-62
2023/09/17 08:05:26;;;;;;;17.67;11.43;;;;;;;;;;6243490;28;20049;-63
2023/09/17 08:08:26;;;;;;;19.03;11.77;;;;;;;;;;6243457;28;20044;-62
2023/09/17 08:11:29;;;;;;;18.00;11.73;;;;;;;;;;6243859;28;20044;-62
2023/09/17 08:14:29;;;;;;;18.70;11.73;;;;;;;;;;6242440;28;20541;-63
2023/09/17 08:17:30;;;;;;;18.43;10.93;;;;;;;;;;6244777;28;20064;-62
2023/09/17 08:20:31;;;;;;;17.03;11.27;;;;;;;;;;6240807;28;20049;-62
2023/09/17 08:23:32;;;;;;;17.50;10.75;;;;;;;;;;6240681;28;20059;-61
2023/09/17 08:26:32;;;;;;;18.27;11.57;;;;;;;;;;6242042;28;20041;-62
2023/09/17 08:29:34;;;;;;;16.83;9.80;;;;;;;;;;6243734;28;20053;-62
2023/09/17 08:32:34;;;;;;;16.50;10.30;;;;;;;;;;6243772;28;20045;-62
2023/09/17 08:35:35;;;;;;;15.90;10.10;;;;;;;;;;6240948;28;20048;-61
2023/09/17 08:38:36;;;;;;;14.73;9.50;;;;;;;;;;6240119;28;20520;-62
2023/09/17 08:41:40;;;;;;;15.30;9.40;;;;;;;;;;6241788;28;20045;-62
2023/09/17 08:44:42;;;;;;;13.07;8.63;;;;;;;;;;6243604;28;20057;-63
2023/09/17 08:47:43;;;;;;;13.07;8.38;;;;;;;;;;6242663;28;20045;-63
2023/09/17 08:50:49;;;;;;;12.00;8.50;;;;;;;;;;6254908;28;20044;-63
2023/09/17 08:54:02;;;;;;;12.75;8.13;;;;;;;;;;6261046;28;20044;-63
2023/09/17 08:57:04;;;;;;;13.85;8.55;;;;;;;;;;6251190;28;20049;-63
2023/09/17 09:00:09;;;;;;;13.23;8.18;;;;;;;;;;6253064;28;20037;-63
2023/09/17 09:03:13;;;;;;;15.00;8.20;;;;;;;;;;6245810;28;20049;-63
2023/09/17 09:06:16;;;;;;;15.00;7.60;;;;;;;;;;6253498;28;20474;-63
2023/09/17 09:09:19;;;;;;;13.15;7.85;;;;;;;;;;6256200;28;20034;-62
2023/09/17 09:12:21;;;;;;;12.65;8.48;;;;;;;;;;6243632;28;20049;-62
2023/09/17 09:15:21;;;;;;;12.57;8.07;;;;;;;;;;6261763;28;20051;-63
2023/09/17 09:18:24;;;;;;;14.60;8.00;;;;;;;;;;6259030;28;20041;-65
2023/09/17 09:21:24;;;;;;;16.20;7.90;;;;;;;;;;6260117;28;20325;-65
2023/09/17 09:24:29;;;;;;;11.50;7.57;;;;;;;;;;6259355;28;20512;-66
2023/09/17 09:27:29;;;;;;;11.57;7.65;;;;;;;;;;6257053;28;20524;-61
2023/09/17 09:30:30;;;;;;;11.47;7.30;;;;;;;;;;6257622;28;20048;-60
2023/09/17 09:33:31;;;;;;;13.10;7.10;;;;;;;;;;6259305;28;20143;-61
2023/09/17 09:36:33;;;;;;;12.45;7.80;;;;;;;;;;6258217;28;20049;-61
2023/09/17 09:39:37;;;;;;;10.30;7.00;;;;;;;;;;6260454;28;21381;-61
2023/09/17 09:42:38;;;;;;;11.07;6.78;;;;;;;;;;6254652;28;20622;-62
2023/09/17 09:45:40;;;;;;;11.63;7.40;;;;;;;;;;6264257;28;20041;-61
2023/09/17 09:48:41;;;;;;;11.50;7.43;;;;;;;;;;6263517;28;20487;-61
2023/09/17 09:51:42;;;;;;;10.27;7.30;;;;;;;;;;6264314;28;20044;-60
2023/09/17 09:54:44;;;;;;;11.37;7.13;;;;;;;;;;6263191;28;20055;-61
2023/09/17 09:57:46;;;;;;;13.85;7.90;;;;;;;;;;6263354;28;20116;-61
2023/09/17 10:00:46;;;;;;;10.85;7.05;;;;;;;;;;6257142;28;20047;-61
2023/09/17 10:03:50;;;;;;;11.80;7.07;;;;;;;;;;6254676;28;20385;-63
2023/09/17 10:06:52;;;;;;;9.93;6.82;;;;;;;;;;6261119;28;20049;-62
2023/09/17 10:09:52;;;;;;;12.05;7.43;;;;;;;;;;6255059;28;20075;-62
2023/09/17 10:12:53;;;;;;;11.90;6.67;;;;;;;;;;6262290;28;20049;-61
2023/09/17 10:15:55;;;;;;;10.27;7.10;;;;;;;;;;6259716;28;20388;-65
2023/09/17 10:18:56;;;;;;;11.02;6.75;;;;;;;;;;6255426;28;20077;-62
2023/09/17 10:21:58;;;;;;;10.43;6.30;;;;;;;;;;6250477;28;20041;-62
2023/09/17 10:25:04;;;;;;;9.30;6.25;;;;;;;;;;6254847;28;20063;-62
2023/09/17 10:28:05;;;;;;;10.07;6.05;;;;;;;;;;6257015;28;20392;-62
2023/09/17 10:31:07;;;;;;;8.32;5.13;;;;;;;;;;6261282;28;20053;-63
2023/09/17 10:34:12;;;;;;;;;;;;;;;;;;6256253;28;20049;-62
2023/09/17 10:37:16;;;;;;;9.45;6.32;;;;;;;;;;6262448;28;19931;-62
2023/09/17 10:40:17;;;;;;;9.55;5.93;;;;;;;;;;6263846;28;20064;-61
2023/09/17 10:43:19;;;;;;;7.47;5.45;;;;;;;;;;6258420;28;20033;-61
2023/09/17 10:46:21;;;;;;;10.45;6.40;;;;;;;;;;6250943;28;20148;-61
2023/09/17 10:49:23;;;;;;;14.60;7.80;;;;;;;;;;6254059;28;20049;-63
2023/09/17 10:52:26;;;;;;;11.68;6.18;;;;;;;;;;6256932;28;20052;-63
2023/09/17 10:55:30;;;;;;;9.25;5.90;;;;;;;;;;6253596;28;20041;-62
2023/09/17 10:58:37;;;;;;;8.68;6.00;;;;;;;;;;6249317;28;20111;-61
2023/09/17 11:01:41;;;;;;;8.35;5.90;;;;;;;;;;6251819;28;20057;-61
2023/09/17 11:04:43;;;;;;;11.65;6.25;;;;;;;;;;6247625;28;20056;-61
2023/09/17 11:07:44;;;;;;;11.43;6.00;;;;;;;;;;6244647;28;20148;-61
2023/09/17 11:10:45;;;;;;;9.43;5.60;;;;;;;;;;6243384;28;20037;-62
2023/09/17 11:13:46;;;;;;;10.47;6.20;;;;;;;;;;6246937;28;20053;-62
2023/09/17 11:16:48;;;;;;;8.57;5.63;;;;;;;;;;6246808;28;20754;-62
2023/09/17 11:19:48;;;;;;;7.88;5.63;;;;;;;;;;6242500;28;20492;-62
2023/09/17 11:22:52;;;;;;;8.40;4.93;;;;;;;;;;6253281;28;20033;-62
2023/09/17 11:25:54;;;;;;;11.10;5.53;;;;;;;;;;6245506;28;20049;-62
2023/09/17 11:28:56;;;;;;;8.57;4.93;;;;;;;;;;6248981;28;20052;-65
2023/09/17 11:32:01;;;;;;;8.63;4.95;;;;;;;;;;6248906;28;20041;-62
2023/09/17 11:35:01;;;;;;;8.60;4.47;;;;;;;;;;6256183;28;20053;-64
2023/09/17 11:38:02;;;;;;;8.00;4.47;;;;;;;;;;6233693;28;20148;-62
2023/09/17 11:41:08;;;;;;;7.47;4.33;;;;;;;;;;6257993;28;20053;-63
2023/09/17 11:44:09;;;;;;;8.55;4.60;;;;;;;;;;6257712;28;20045;-65
2023/09/17 11:47:12;;;;;;;8.13;4.77;;;;;;;;;;6252103;28;20048;-61
2023/09/17 11:50:13;;;;;;;7.53;5.07;;;;;;;;;;6255796;28;20181;-63
2023/09/17 11:53:15;;;;;;;8.82;4.72;;;;;;;;;;6253455;28;20049;-63
2023/09/17 11:56:16;;;;;;;7.40;5.00;;;;;;;;;;6253763;28;20419;-62
2023/09/17 11:59:18;;;;;;;7.87;4.73;;;;;;;;;;6256403;28;20044;-60
2023/09/17 12:02:18;;;;;;;;;;;;;;;;;;6255160;28;20274;-61
2023/09/17 12:05:22;;;;;;;8.23;5.00;;;;;;;;;;6253995;28;19920;-61
2023/09/17 12:08:23;;;;;;;7.72;4.68;;;;;;;;;;6250761;28;20060;-63
2023/09/17 12:11:23;;;;;;;7.10;4.77;;;;;;;;;;6255303;28;20060;-62
2023/09/17 12:14:25;;;;;;;7.38;4.55;;;;;;;;;;6254743;28;20431;-62
2023/09/17 12:17:25;;;;;;;7.45;4.70;;;;;;;;;;6251853;28;20818;-60
2023/09/17 12:27:29;;;;;;;9.35;4.82;;;;;;;;;;6251371;28;20484;-63
2023/09/17 12:30:30;;;;;;;8.32;5.10;;;;;;;;;;6255564;28;20045;-60
2023/09/17 12:33:31;;;;;;;7.13;4.50;;;;;;;;;;6254381;28;20049;-60
2023/09/17 12:36:31;;;;;;;6.80;4.33;;;;;;;;;;6247641;28;20050;-61
2023/09/17 12:39:32;;;;;;;7.28;4.93;;;;;;;;;;6245335;28;20064;-62
2023/09/17 12:42:33;;;;;;;7.20;4.40;;;;;;;;;;6254519;28;20060;-61
2023/09/17 12:45:35;;;;;;;8.93;4.78;;;;;;;;;;6250493;28;20290;-61
2023/09/17 12:48:36;;;;;;;8.50;4.78;;;;;;;;;;6253057;28;20798;-61
2023/09/17 12:51:37;;;;;;;7.00;4.70;;;;;;;;;;6252832;28;20053;-62
2023/09/17 12:54:39;;;;;;;7.30;4.70;;;;;;;;;;6255165;28;20080;-62
2023/09/17 12:57:40;;;;;;;7.75;5.03;;;;;;;;;;6252831;28;20055;-62
2023/09/17 13:00:40;;;;;;;9.20;5.97;;;;;;;;;;6251744;28;20052;-61
2023/09/17 13:03:55;;;;;;;11.23;5.50;;;;;;;;;;6255224;28;20364;-61
2023/09/17 13:06:56;;;;;;;7.65;4.88;;;;;;;;;;6250467;28;20060;-62
2023/09/17 13:09:58;;;;;;;7.40;4.97;;;;;;;;;;6253823;28;20119;-61
2023/09/17 13:13:03;;;;;;;7.68;5.20;;;;;;;;;;6246188;28;20041;-61
2023/09/17 13:16:04;;;;;;;10.20;4.97;;;;;;;;;;6251429;28;20445;-59
2023/09/17 13:19:05;;;;;;;6.83;4.67;;;;;;;;;;6252024;28;20057;-61
2023/09/17 13:22:06;;;;;;;7.13;5.00;;;;;;;;;;6251888;28;20052;-64
2023/09/17 13:25:07;;;;;;;9.93;5.30;;;;;;;;;;6251664;28;20567;-61
2023/09/17 13:28:12;;;;;;;6.20;4.70;;;;;;;;;;6249994;28;20640;-62
2023/09/17 13:31:14;;;;;;;8.63;4.75;;;;;;;;;;6234022;28;20163;-61
2023/09/17 13:34:18;;;;;;;7.53;4.95;;;;;;;;;;6252184;28;20497;-61
2023/09/17 13:37:19;;;;;;;8.43;4.80;;;;;;;;;;6247483;28;20041;-61
2023/09/17 13:40:21;;;;;;;6.55;4.65;;;;;;;;;;6254394;28;20467;-61
2023/09/17 13:43:21;;;;;;;;;;;;;;;;;;6251142;28;20455;-62
2023/09/17 13:46:24;;;;;;;9.70;5.00;;;;;;;;;;6251257;28;19935;-61
2023/09/17 13:49:25;;;;;;;7.78;5.00;;;;;;;;;;6253330;28;20064;-61
2023/09/17 13:52:25;;;;;;;7.88;4.95;;;;;;;;;;6234554;28;20060;-63
2023/09/17 13:55:26;;;;;;;8.80;4.83;;;;;;;;;;6248685;28;20107;-64
2023/09/17 13:58:27;;;;;;;7.33;4.83;;;;;;;;;;6247804;28;20626;-64
2023/09/17 14:01:27;;;;;;;9.40;4.90;;;;;;;;;;6254496;28;20294;-63
2023/09/17 14:04:28;;;;;;;15.15;5.90;;;;;;;;;;6247571;28;20564;-64
2023/09/17 14:07:29;;;;;;;11.00;5.17;;;;;;;;;;6250248;28;20044;-63
2023/09/17 14:10:29;;;;;;;8.87;4.93;;;;;;;;;;6249748;28;20033;-62
2023/09/17 14:13:32;;;;;;;8.43;4.87;;;;;;;;;;6249260;28;20048;-63
2023/09/17 14:16:33;;;;;;;8.27;5.03;;;;;;;;;;6249425;28;20045;-61
2023/09/17 14:19:34;;;;;;;8.97;5.60;;;;;;;;;;6245218;28;20057;-59
2023/09/17 14:22:34;;;;;;;7.65;5.22;;;;;;;;;;6247626;28;20132;-59
2023/09/17 14:25:35;;;;;;;8.60;4.83;;;;;;;;;;6247149;28;20049;-59
2023/09/17 14:28:35;;;;;;;7.83;5.27;;;;;;;;;;6252310;28;20041;-62
2023/09/17 14:31:36;;;;;;;8.53;4.83;;;;;;;;;;6250716;28;20049;-62
2023/09/17 14:34:37;;;;;;;11.40;5.40;;;;;;;;;;6245362;28;20526;-63
2023/09/17 14:37:37;;;;;;;9.07;5.60;;;;;;;;;;6247972;28;20520;-59
2023/09/17 14:40:38;;;;;;;7.80;5.50;;;;;;;;;;6246181;28;20092;-58
2023/09/17 14:43:39;;;;;;;7.63;5.00;;;;;;;;;;6247648;28;20053;-59
2023/09/17 14:46:39;;;;;;;10.07;5.50;;;;;;;;;;6249720;28;20053;-64
2023/09/17 14:49:40;;;;;;;7.37;5.37;;;;;;;;;;6251440;28;20432;-60
2023/09/17 14:52:41;;;;;;;9.17;5.20;;;;;;;;;;6249785;28;20735;-58
2023/09/17 14:55:42;;;;;;;9.77;5.60;;;;;;;;;;6227684;28;20724;-60
2023/09/17 14:58:42;;;;;;;7.82;5.18;;;;;;;;;;6243192;28;20415;-61
2023/09/17 15:01:43;;;;;;;8.90;5.20;;;;;;;;;;6250841;28;20063;-60
2023/09/17 15:04:44;;;;;;;8.23;4.83;;;;;;;;;;6248741;28;20713;-60
2023/09/17 15:07:44;;;;;;;7.90;5.20;;;;;;;;;;6246686;28;20419;-60
2023/09/17 15:10:45;;;;;;;12.68;5.88;;;;;;;;;;6253225;28;20784;-61
2023/09/17 15:13:46;;;;;;;8.67;5.17;;;;;;;;;;6257108;28;20048;-61
2023/09/17 15:16:47;;;;;;;7.22;5.25;;;;;;;;;;6255409;28;20053;-61
2023/09/17 15:19:47;;;;;;;10.53;5.30;;;;;;;;;;6258020;28;20492;-61
2023/09/17 15:22:48;;;;;;;7.63;5.40;;;;;;;;;;6253236;28;20089;-61
2023/09/17 15:25:49;;;;;;;7.63;5.20;;;;;;;;;;6257139;28;20056;-61
2023/09/17 15:28:50;;;;;;;8.35;5.43;;;;;;;;;;6252392;28;20071;-60
2023/09/17 15:31:51;;;;;;;12.63;5.50;;;;;;;;;;6256890;28;20041;-62
2023/09/17 15:34:51;;;;;;;7.95;5.32;;;;;;;;;;6248976;28;20055;-62
2023/09/17 15:37:53;;;;;;;7.90;5.23;;;;;;;;;;6253066;28;20363;-63
2023/09/17 15:40:54;;;;;;;10.82;5.47;;;;;;;;;;6254680;28;20471;-64
2023/09/17 15:43:55;;;;;;;9.45;5.60;;;;;;;;;;6256450;28;20060;-59
2023/09/17 15:46:57;;;;;;;8.45;5.90;;;;;;;;;;6252626;28;20053;-60
2023/09/17 15:49:58;;;;;;;9.55;5.28;;;;;;;;;;6257033;28;20135;-60
2023/09/17 15:52:59;;;;;;;8.20;5.70;;;;;;;;;;6245219;28;20049;-61
2023/09/17 15:55:59;;;;;;;9.60;5.87;;;;;;;;;;6254752;28;20431;-61
2023/09/17 15:59:00;;;;;;;9.60;5.57;;;;;;;;;;6254947;28;20304;-58
2023/09/17 16:02:03;;;;;;;7.75;5.40;;;;;;;;;;6256796;28;20037;-59
2023/09/17 16:05:04;;;;;;;8.80;5.65;;;;;;;;;;6250509;28;20080;-60
2023/09/17 16:08:04;;;;;;;14.87;6.13;;;;;;;;;;6247182;28;20659;-60
2023/09/17 16:11:05;;;;;;;8.00;5.43;;;;;;;;;;6260703;28;20151;-60
2023/09/17 16:14:06;;;;;;;9.47;5.70;;;;;;;;;;6260488;28;20306;-65
2023/09/17 16:17:06;;;;;;;8.13;5.73;;;;;;;;;;6257941;28;20916;-63
2023/09/17 16:20:08;;;;;;;8.67;5.80;;;;;;;;;;6258478;28;20045;-60
2023/09/17 16:23:10;;;;;;;9.95;5.45;;;;;;;;;;6262172;28;20542;-60
2023/09/17 16:26:10;;;;;;;10.82;5.70;;;;;;;;;;6259438;28;20041;-61
2023/09/17 16:29:11;;;;;;;7.57;5.30;;;;;;;;;;6260894;28;20079;-60
2023/09/17 16:32:11;;;;;;;9.77;5.63;;;;;;;;;;6259513;28;20066;-62
2023/09/17 16:35:12;;;;;;;7.68;5.45;;;;;;;;;;6255592;28;20646;-60
2023/09/17 16:38:13;;;;;;;10.27;5.77;;;;;;;;;;6254903;28;20118;-60
2023/09/17 16:41:14;;;;;;;8.13;5.63;;;;;;;;;;6255193;28;20585;-61
2023/09/17 16:44:14;;;;;;;7.03;5.33;;;;;;;;;;6255752;28;20045;-62
2023/09/17 16:47:15;;;;;;;8.73;6.00;;;;;;;;;;6255180;28;20564;-62
2023/09/17 16:50:15;;;;;;;7.70;5.60;;;;;;;;;;6248233;28;20056;-62
2023/09/17 16:53:18;;;;;;;8.23;5.70;;;;;;;;;;6260989;28;20562;-62
2023/09/17 16:56:18;;;;;;;7.88;5.10;;;;;;;;;;6259634;28;20091;-61
2023/09/17 16:59:19;;;;;;;12.57;5.60;;;;;;;;;;6258709;28;20267;-61
2023/09/17 17:02:20;;;;;;;8.77;5.43;;;;;;;;;;6259643;28;20053;-61
2023/09/17 17:05:21;;;;;;;10.57;6.07;;;;;;;;;;6255495;28;20134;-61
2023/09/17 17:08:21;;;;;;;9.70;5.87;;;;;;;;;;6260015;28;20078;-60
2023/09/17 17:11:22;;;;;;;9.43;6.10;;;;;;;;;;6260551;28;20048;-59
2023/09/17 17:14:22;;;;;;;10.47;5.40;;;;;;;;;;6258384;28;20045;-61
2023/09/17 17:17:24;;;;;;;9.33;6.03;;;;;;;;;;6255927;28;20061;-60
2023/09/17 17:20:24;;;;;;;8.88;5.82;;;;;;;;;;6254284;28;20480;-59
2023/09/17 17:23:25;;;;;;;12.87;5.90;;;;;;;;;;6252148;28;20051;-61
2023/09/17 17:26:25;;;;;;;10.67;6.07;;;;;;;;;;6252733;28;20052;-59
2023/09/17 17:29:26;;;;;;;8.60;6.10;;;;;;;;;;6253506;28;20607;-60
2023/09/17 17:32:27;;;;;;;11.60;5.70;;;;;;;;;;6252448;28;20041;-59
2023/09/17 17:35:28;;;;;;;10.77;6.50;;;;;;;;;;6242536;28;20045;-58
2023/09/17 17:38:29;;;;;;;10.37;6.20;;;;;;;;;;6259103;28;20349;-58
2023/09/17 17:41:30;;;;;;;11.68;7.13;;;;;;;;;;6259029;28;20495;-61
2023/09/17 17:44:31;;;;;;;12.00;6.83;;;;;;;;;;6262458;28;20045;-60
2023/09/17 17:47:33;;;;;;;14.00;7.57;;;;;;;;;;6257238;28;20071;-61
2023/09/17 17:50:34;;;;;;;10.50;7.20;;;;;;;;;;6261303;28;20103;-62
2023/09/17 17:53:36;;;;;;;9.90;6.93;;;;;;;;;;6254725;28;20061;-60
2023/09/17 17:56:36;;;;;;;12.50;7.28;;;;;;;;;;6252258;28;20428;-61
2023/09/17 17:59:37;;;;;;;10.57;6.93;;;;;;;;;;6251712;28;20819;-62